CPA524 VHHH-RJAA
Flight info
| Callsign | CPA524 |
|---|---|
| Flight time | N/A |
| Altitude | 37000 |
| Route | DALOL V631 ENVAR M750 PILOX/N0472F390 M750 MUKEP Y891 AGIMO Y89 GUPER Y81 RUTAS |
| Aircraft | A333/H-SDE3GHIJ2J3J5M1RVWXY/LB2D1 |
Departure
| Time | N/A |
|---|---|
| Airport | Hong Kong International Airport (VHHH) |
Arrival
| Time | 2026-05-05 20:10 |
|---|---|
| Airport | Narita International Airport (RJAA) |
| Time | Latitude | Longitude | Altitude | Speed | Heading |
|---|---|---|---|---|---|
| 2026-05-05 19:38 | 33.72106 | 138.85935 | 37238 ft | 542 kts | 55° |
| 2026-05-05 19:38 | 33.76005 | 138.93686 | 37240 ft | 541 kts | 54° |
| 2026-05-05 19:39 | 33.79239 | 139.00112 | 37252 ft | 540 kts | 54° |
| 2026-05-05 19:39 | 33.83127 | 139.07887 | 37245 ft | 544 kts | 55° |
| 2026-05-05 19:40 | 33.87036 | 139.15703 | 37248 ft | 546 kts | 54° |
| 2026-05-05 19:40 | 33.90947 | 139.23530 | 37247 ft | 546 kts | 55° |
| 2026-05-05 19:41 | 33.94856 | 139.31373 | 37246 ft | 546 kts | 55° |
| 2026-05-05 19:41 | 33.98756 | 139.39220 | 37253 ft | 546 kts | 55° |
| 2026-05-05 19:42 | 34.02653 | 139.47079 | 37252 ft | 548 kts | 55° |
| 2026-05-05 19:42 | 34.06636 | 139.55031 | 37259 ft | 557 kts | 50° |
| 2026-05-05 19:43 | 34.11391 | 139.62434 | 37256 ft | 562 kts | 46° |
| 2026-05-05 19:43 | 34.16200 | 139.69780 | 37257 ft | 560 kts | 46° |
| 2026-05-05 19:44 | 34.21065 | 139.77134 | 37261 ft | 560 kts | 45° |
| 2026-05-05 19:44 | 34.25933 | 139.84483 | 37264 ft | 560 kts | 45° |
| 2026-05-05 19:45 | 34.30796 | 139.91844 | 37266 ft | 560 kts | 45° |
| 2026-05-05 19:45 | 34.35653 | 139.99217 | 37270 ft | 560 kts | 45° |
| 2026-05-05 19:46 | 34.40514 | 140.06612 | 37270 ft | 561 kts | 46° |
| 2026-05-05 19:46 | 34.45363 | 140.14045 | 37264 ft | 565 kts | 49° |
| 2026-05-05 19:47 | 34.49590 | 140.22079 | 37266 ft | 569 kts | 52° |
| 2026-05-05 19:47 | 34.53833 | 140.30197 | 37215 ft | 572 kts | 53° |
| 2026-05-05 19:47 | 34.55959 | 140.34299 | 36732 ft | 577 kts | 53° |
| 2026-05-05 19:48 | 34.58104 | 140.38450 | 35913 ft | 582 kts | 54° |
| 2026-05-05 19:48 | 34.60258 | 140.42630 | 35066 ft | 588 kts | 54° |
| 2026-05-05 19:48 | 34.62432 | 140.46858 | 34308 ft | 592 kts | 54° |
| 2026-05-05 19:48 | 34.64613 | 140.51107 | 33438 ft | 594 kts | 54° |
| 2026-05-05 19:49 | 34.66798 | 140.55374 | 32663 ft | 594 kts | 54° |
| 2026-05-05 19:49 | 34.68976 | 140.59630 | 31905 ft | 593 kts | 54° |
| 2026-05-05 19:49 | 34.71148 | 140.63880 | 31153 ft | 592 kts | 54° |
| 2026-05-05 19:49 | 34.73248 | 140.68184 | 30605 ft | 589 kts | 58° |
| 2026-05-05 19:50 | 34.75119 | 140.72570 | 29893 ft | 582 kts | 60° |
| 2026-05-05 19:50 | 34.76923 | 140.76975 | 28870 ft | 580 kts | 61° |
| 2026-05-05 19:50 | 34.78691 | 140.81345 | 28090 ft | 571 kts | 62° |
| 2026-05-05 19:50 | 34.80442 | 140.85629 | 27382 ft | 561 kts | 61° |
| 2026-05-05 19:51 | 34.82516 | 140.89565 | 26597 ft | 544 kts | 47° |
| 2026-05-05 19:51 | 34.85178 | 140.92714 | 25509 ft | 525 kts | 32° |
| 2026-05-05 19:51 | 34.88258 | 140.94937 | 24453 ft | 507 kts | 21° |
| 2026-05-05 19:51 | 34.91427 | 140.96739 | 23347 ft | 497 kts | 21° |
| 2026-05-05 19:52 | 34.94490 | 140.98544 | 22393 ft | 482 kts | 23° |
| 2026-05-05 19:52 | 34.97441 | 141.00382 | 21414 ft | 469 kts | 25° |
| 2026-05-05 19:52 | 35.00289 | 141.02225 | 20350 ft | 459 kts | 26° |
| 2026-05-05 19:52 | 35.03014 | 141.04031 | 19424 ft | 446 kts | 27° |
| 2026-05-05 19:53 | 35.05692 | 141.05828 | 18488 ft | 433 kts | 28° |
| 2026-05-05 19:53 | 35.08303 | 141.07595 | 17148 ft | 427 kts | 29° |
| 2026-05-05 19:53 | 35.10886 | 141.09352 | 15928 ft | 421 kts | 30° |
| 2026-05-05 19:53 | 35.13426 | 141.11088 | 14684 ft | 416 kts | 30° |
| 2026-05-05 19:54 | 35.15927 | 141.12798 | 13563 ft | 407 kts | 30° |
| 2026-05-05 19:54 | 35.18376 | 141.14474 | 12585 ft | 396 kts | 30° |
| 2026-05-05 19:54 | 35.20728 | 141.15953 | 12484 ft | 364 kts | 22° |
| 2026-05-05 19:54 | 35.23038 | 141.16840 | 12465 ft | 333 kts | 15° |
| 2026-05-05 19:55 | 35.25196 | 141.17506 | 12411 ft | 308 kts | 14° |
| 2026-05-05 19:55 | 35.27219 | 141.18107 | 12260 ft | 290 kts | 14° |
| 2026-05-05 19:55 | 35.29144 | 141.18680 | 12102 ft | 278 kts | 14° |
| 2026-05-05 19:55 | 35.30989 | 141.19234 | 11922 ft | 272 kts | 14° |
| 2026-05-05 19:56 | 35.32867 | 141.19800 | 11349 ft | 284 kts | 13° |
| 2026-05-05 19:56 | 35.34829 | 141.20391 | 10752 ft | 296 kts | 13° |
| 2026-05-05 19:56 | 35.36858 | 141.21003 | 10211 ft | 303 kts | 13° |
| 2026-05-05 19:56 | 35.38932 | 141.21624 | 9609 ft | 310 kts | 12° |
| 2026-05-05 19:57 | 35.41082 | 141.21808 | 9145 ft | 310 kts | 350° |
| 2026-05-05 19:57 | 35.43151 | 141.21150 | 8806 ft | 305 kts | 340° |
| 2026-05-05 19:57 | 35.45122 | 141.20288 | 8535 ft | 299 kts | 337° |
| 2026-05-05 19:57 | 35.47060 | 141.19411 | 8067 ft | 301 kts | 337° |
| 2026-05-05 19:58 | 35.49039 | 141.18521 | 7854 ft | 295 kts | 338° |
| 2026-05-05 19:58 | 35.50887 | 141.17552 | 7763 ft | 292 kts | 328° |
| 2026-05-05 19:58 | 35.52468 | 141.16010 | 7690 ft | 289 kts | 307° |
| 2026-05-05 19:58 | 35.53434 | 141.13902 | 7618 ft | 282 kts | 283° |
| 2026-05-05 19:59 | 35.53596 | 141.11545 | 7501 ft | 276 kts | 261° |
| 2026-05-05 19:59 | 35.53354 | 141.09214 | 7385 ft | 275 kts | 258° |
| 2026-05-05 19:59 | 35.53034 | 141.06896 | 7266 ft | 276 kts | 256° |
| 2026-05-05 19:59 | 35.52710 | 141.04576 | 7144 ft | 275 kts | 256° |
| 2026-05-05 20:00 | 35.52395 | 141.02262 | 7025 ft | 274 kts | 256° |
| 2026-05-05 20:00 | 35.52082 | 140.99954 | 6907 ft | 275 kts | 257° |
| 2026-05-05 20:00 | 35.51769 | 140.97640 | 6778 ft | 275 kts | 257° |
| 2026-05-05 20:00 | 35.51456 | 140.95322 | 6529 ft | 274 kts | 258° |
| 2026-05-05 20:01 | 35.51148 | 140.93020 | 6281 ft | 273 kts | 258° |
| 2026-05-05 20:01 | 35.50843 | 140.90723 | 6034 ft | 272 kts | 258° |
| 2026-05-05 20:01 | 35.50539 | 140.88439 | 5775 ft | 270 kts | 258° |
| 2026-05-05 20:01 | 35.50233 | 140.86171 | 5517 ft | 268 kts | 257° |
| 2026-05-05 20:02 | 35.49933 | 140.83937 | 5307 ft | 263 kts | 257° |
| 2026-05-05 20:02 | 35.49637 | 140.81726 | 5270 ft | 263 kts | 257° |
| 2026-05-05 20:02 | 35.49341 | 140.79517 | 5265 ft | 262 kts | 257° |
| 2026-05-05 20:02 | 35.49045 | 140.77317 | 5262 ft | 261 kts | 257° |
| 2026-05-05 20:03 | 35.48748 | 140.75111 | 5258 ft | 262 kts | 257° |
| 2026-05-05 20:03 | 35.48450 | 140.72903 | 5261 ft | 262 kts | 257° |
| 2026-05-05 20:03 | 35.48180 | 140.70689 | 5258 ft | 263 kts | 262° |
| 2026-05-05 20:03 | 35.48351 | 140.68443 | 5252 ft | 269 kts | 284° |
| 2026-05-05 20:04 | 35.49130 | 140.66340 | 5261 ft | 272 kts | 295° |
| 2026-05-05 20:04 | 35.50072 | 140.64316 | 5256 ft | 273 kts | 296° |
| 2026-05-05 20:04 | 35.51029 | 140.62314 | 5258 ft | 272 kts | 297° |
| 2026-05-05 20:04 | 35.52042 | 140.60379 | 4936 ft | 277 kts | 302° |
| 2026-05-05 20:05 | 35.53248 | 140.58529 | 4598 ft | 276 kts | 309° |
| 2026-05-05 20:05 | 35.54610 | 140.56881 | 4273 ft | 275 kts | 316° |
| 2026-05-05 20:05 | 35.56121 | 140.55439 | 3871 ft | 276 kts | 323° |
| 2026-05-05 20:05 | 35.57752 | 140.54182 | 3499 ft | 277 kts | 327° |
| 2026-05-05 20:06 | 35.59409 | 140.52992 | 3150 ft | 275 kts | 326° |
| 2026-05-05 20:06 | 35.61059 | 140.51831 | 2997 ft | 271 kts | 327° |
| 2026-05-05 20:06 | 35.62688 | 140.50669 | 2933 ft | 271 kts | 326° |
| 2026-05-05 20:06 | 35.64316 | 140.49499 | 2625 ft | 271 kts | 326° |
| 2026-05-05 20:07 | 35.65933 | 140.48347 | 2495 ft | 264 kts | 326° |
| 2026-05-05 20:07 | 35.67476 | 140.47243 | 2477 ft | 249 kts | 326° |
| 2026-05-05 20:07 | 35.68928 | 140.46194 | 2418 ft | 236 kts | 326° |
| 2026-05-05 20:07 | 35.70320 | 140.45189 | 2109 ft | 229 kts | 326° |
| 2026-05-05 20:08 | 35.71675 | 140.44209 | 1744 ft | 222 kts | 326° |
| 2026-05-05 20:08 | 35.72987 | 140.43268 | 1465 ft | 214 kts | 326° |
| 2026-05-05 20:08 | 35.74242 | 140.42367 | 1233 ft | 204 kts | 325° |
| 2026-05-05 20:08 | 35.75415 | 140.41513 | 913 ft | 192 kts | 326° |
| 2026-05-05 20:09 | 35.76519 | 140.40693 | 697 ft | 178 kts | 328° |
| 2026-05-05 20:09 | 35.77555 | 140.39958 | 429 ft | 165 kts | 328° |
| 2026-05-05 20:09 | 35.78511 | 140.39264 | 214 ft | 154 kts | 329° |
| 2026-05-05 20:09 | 35.79369 | 140.38639 | 149 ft | 124 kts | 329° |
| 2026-05-05 20:10 | 35.79901 | 140.38255 | 148 ft | 39 kts | 330° |
| 2026-05-05 20:10 | 35.80083 | 140.38061 | 150 ft | 33 kts | 306° |
| 2026-05-05 20:10 | 35.80140 | 140.37923 | 148 ft | 14 kts | 271° |
| 2026-05-05 20:10 | 35.80079 | 140.37878 | 147 ft | 12 kts | 164° |
| 2026-05-05 20:11 | 35.80003 | 140.37925 | 147 ft | 13 kts | 148° |
| 2026-05-05 20:11 | 35.79924 | 140.37983 | 148 ft | 14 kts | 149° |
| 2026-05-05 20:11 | 35.79839 | 140.38047 | 147 ft | 15 kts | 148° |
| 2026-05-05 20:11 | 35.79745 | 140.38113 | 147 ft | 16 kts | 149° |
| 2026-05-05 20:12 | 35.79645 | 140.38186 | 147 ft | 17 kts | 149° |
| 2026-05-05 20:12 | 35.79538 | 140.38264 | 147 ft | 18 kts | 150° |
| 2026-05-05 20:12 | 35.79425 | 140.38345 | 147 ft | 19 kts | 149° |
| 2026-05-05 20:12 | 35.79307 | 140.38430 | 147 ft | 20 kts | 149° |
| 2026-05-05 20:13 | 35.79184 | 140.38519 | 148 ft | 21 kts | 149° |
| 2026-05-05 20:13 | 35.79077 | 140.38600 | 148 ft | 16 kts | 138° |
| 2026-05-05 20:13 | 35.79011 | 140.38718 | 148 ft | 17 kts | 128° |
| 2026-05-05 20:13 | 35.78915 | 140.38810 | 147 ft | 18 kts | 157° |
| 2026-05-05 20:14 | 35.78792 | 140.38852 | 148 ft | 19 kts | 178° |
| 2026-05-05 20:14 | 35.78661 | 140.38830 | 147 ft | 20 kts | 189° |
| 2026-05-05 20:14 | 35.78525 | 140.38806 | 147 ft | 20 kts | 187° |
| 2026-05-05 20:14 | 35.78382 | 140.38786 | 148 ft | 21 kts | 186° |
| 2026-05-05 20:15 | 35.78253 | 140.38782 | 147 ft | 17 kts | 171° |
| 2026-05-05 20:15 | 35.78140 | 140.38813 | 147 ft | 16 kts | 169° |
| 2026-05-05 20:15 | 35.78043 | 140.38757 | 147 ft | 16 kts | 222° |
| 2026-05-05 20:15 | 35.77969 | 140.38688 | 147 ft | 10 kts | 198° |
| 2026-05-05 20:16 | 35.77900 | 140.38707 | 147 ft | 11 kts | 155° |
| 2026-05-05 20:16 | 35.77830 | 140.38755 | 147 ft | 12 kts | 148° |
| 2026-05-05 20:16 | 35.77753 | 140.38812 | 147 ft | 14 kts | 150° |
| 2026-05-05 20:16 | 35.77672 | 140.38871 | 147 ft | 14 kts | 149° |
| 2026-05-05 20:17 | 35.77611 | 140.38898 | 147 ft | 7 kts | 192° |
| 2026-05-05 20:17 | 35.77582 | 140.38854 | 147 ft | 7 kts | 238° |
| 2026-05-05 20:17 | 35.77570 | 140.38828 | 147 ft | 0 kts | 239° |